createdAt,value
2018-06-17T00:00:57.628Z,5.00
2018-06-17T00:03:26.109Z,4.97
2018-06-17T00:05:54.548Z,5.07
2018-06-17T00:08:22.993Z,5.17
2018-06-17T00:10:51.407Z,5.27
2018-06-17T00:13:19.820Z,5.70
2018-06-17T00:15:48.235Z,5.37
2018-06-17T00:18:16.551Z,4.60
2018-06-17T00:20:45.179Z,5.30
2018-06-17T00:23:13.709Z,4.87
2018-06-17T00:25:42.172Z,4.57
2018-06-17T00:28:10.688Z,5.07
2018-06-17T00:30:39.220Z,5.53
2018-06-17T00:33:07.821Z,5.43
2018-06-17T00:35:36.509Z,5.77
2018-06-17T00:38:05.572Z,5.67
2018-06-17T00:40:34.466Z,5.27
2018-06-17T00:43:03.248Z,4.60
2018-06-17T00:45:31.715Z,4.70
2018-06-17T00:48:00.176Z,4.77
2018-06-17T00:50:28.680Z,4.87
2018-06-17T00:52:57.204Z,5.00
2018-06-17T00:55:25.832Z,5.07
2018-06-17T00:57:53.938Z,5.47
2018-06-17T01:00:23.550Z,5.47
2018-06-17T01:02:52.055Z,5.33
2018-06-17T01:05:20.500Z,4.77
2018-06-17T01:07:48.884Z,4.77
2018-06-17T01:10:17.332Z,4.80
2018-06-17T01:12:45.734Z,4.70
2018-06-17T01:15:14.286Z,4.77
2018-06-17T01:17:42.702Z,4.70
2018-06-17T01:20:11.288Z,4.53
2018-06-17T01:22:39.873Z,5.10
2018-06-17T01:25:08.519Z,4.40
2018-06-17T01:27:37.012Z,5.00
2018-06-17T01:30:05.821Z,5.07
2018-06-17T01:32:34.365Z,5.33
2018-06-17T01:35:02.940Z,4.97
2018-06-17T01:37:31.378Z,4.77
2018-06-17T01:40:00.003Z,5.30
2018-06-17T01:42:28.479Z,5.40
2018-06-17T01:44:56.956Z,5.30
2018-06-17T01:47:25.423Z,5.10
2018-06-17T01:49:53.858Z,5.10
2018-06-17T01:52:22.305Z,5.33
2018-06-17T01:54:50.673Z,5.03
2018-06-17T01:57:19.119Z,5.10
2018-06-17T01:59:47.592Z,6.00
2018-06-17T02:02:16.020Z,5.83
2018-06-17T02:04:49.819Z,6.30
2018-06-17T02:07:23.578Z,6.47
2018-06-17T02:09:57.471Z,6.43
2018-06-17T02:12:25.996Z,6.20
2018-06-17T02:14:55.907Z,5.97
2018-06-17T02:17:25.211Z,6.40
2018-06-17T02:19:54.312Z,5.50
2018-06-17T02:22:22.912Z,7.13
2018-06-17T02:24:51.379Z,5.90
2018-06-17T02:27:20.048Z,5.37
2018-06-17T02:29:48.479Z,5.60
2018-06-17T02:32:16.938Z,6.27
2018-06-17T02:34:45.340Z,5.67
2018-06-17T02:37:13.786Z,5.93
2018-06-17T02:39:42.318Z,6.57
2018-06-17T02:42:11.021Z,6.23
2018-06-17T02:44:39.608Z,6.23
2018-06-17T02:47:13.491Z,5.97
2018-06-17T02:49:44.206Z,6.80
2018-06-17T02:52:17.961Z,6.57
2018-06-17T02:54:47.216Z,7.10
2018-06-17T02:57:16.885Z,6.73
2018-06-17T02:59:45.800Z,7.77
2018-06-17T03:02:14.750Z,7.43
2018-06-17T03:04:43.202Z,6.40
2018-06-17T03:07:11.652Z,6.93
2018-06-17T03:09:40.123Z,6.83
2018-06-17T03:12:08.734Z,7.40
2018-06-17T03:14:37.207Z,7.13
2018-06-17T03:17:05.903Z,7.50
2018-06-17T03:19:34.547Z,7.50
2018-06-17T03:22:03.276Z,6.93
2018-06-17T03:24:37.065Z,8.00
2018-06-17T03:27:11.151Z,8.37
2018-06-17T03:29:44.840Z,7.27
2018-06-17T03:32:18.753Z,6.53
2018-06-17T03:34:51.368Z,7.80
2018-06-17T03:37:19.800Z,7.50
2018-06-17T03:39:48.247Z,7.27
2018-06-17T03:42:16.615Z,7.47
2018-06-17T03:44:45.115Z,7.17
2018-06-17T03:47:13.544Z,7.57
2018-06-17T03:49:42.074Z,7.63
2018-06-17T03:52:12.251Z,7.03
2018-06-17T03:54:40.887Z,7.87
2018-06-17T03:57:09.445Z,7.27
2018-06-17T03:59:38.081Z,7.00
2018-06-17T04:02:06.782Z,7.23
2018-06-17T04:04:41.045Z,7.10
2018-06-17T04:07:09.536Z,7.30
2018-06-17T04:09:37.995Z,7.10
2018-06-17T04:12:06.612Z,7.13
2018-06-17T04:14:35.920Z,7.53
2018-06-17T04:17:10.438Z,7.30
2018-06-17T04:19:38.944Z,6.53
2018-06-17T04:22:07.529Z,7.23
2018-06-17T04:24:36.108Z,6.50
2018-06-17T04:27:04.757Z,7.33
2018-06-17T04:29:33.200Z,6.13
2018-06-17T04:32:01.641Z,6.40
2018-06-17T04:34:30.217Z,6.40
2018-06-17T04:36:58.811Z,7.00
2018-06-17T04:39:27.301Z,6.90
2018-06-17T04:41:55.683Z,6.83
2018-06-17T04:44:24.120Z,6.67
2018-06-17T04:46:52.572Z,7.00
2018-06-17T04:49:20.941Z,7.10
2018-06-17T04:51:49.400Z,6.97
2018-06-17T04:54:17.758Z,6.70
2018-06-17T04:56:46.132Z,6.83
2018-06-17T04:59:14.507Z,6.60
2018-06-17T05:01:42.944Z,6.30
2018-06-17T05:04:11.432Z,6.70
2018-06-17T05:06:39.852Z,6.60
2018-06-17T05:09:09.017Z,6.87
2018-06-17T05:11:37.471Z,6.97
2018-06-17T05:14:06.287Z,6.57
2018-06-17T05:16:34.865Z,6.73
2018-06-17T05:19:03.391Z,6.30
2018-06-17T05:21:31.951Z,6.33
2018-06-17T05:24:00.391Z,5.87
2018-06-17T05:26:28.924Z,5.77
2018-06-17T05:28:57.428Z,7.10
2018-06-17T05:31:25.933Z,5.73
2018-06-17T05:33:54.504Z,6.43
2018-06-17T05:36:22.871Z,5.60
2018-06-17T05:38:51.286Z,5.77
2018-06-17T05:41:19.770Z,5.87
2018-06-17T05:43:48.224Z,5.83
2018-06-17T05:46:16.611Z,6.40
2018-06-17T05:48:45.120Z,5.30
2018-06-17T05:51:13.636Z,6.00
2018-06-17T05:53:41.822Z,6.23
2018-06-17T05:56:10.478Z,5.67
2018-06-17T05:58:38.995Z,5.70
2018-06-17T06:01:07.593Z,6.27
2018-06-17T06:03:35.743Z,5.80
2018-06-17T06:06:04.105Z,6.17
2018-06-17T06:08:32.500Z,5.67
2018-06-17T06:11:00.940Z,5.40
2018-06-17T06:13:29.389Z,6.40
2018-06-17T06:15:57.783Z,6.50
2018-06-17T06:18:26.172Z,6.43
2018-06-17T06:20:54.656Z,5.70
2018-06-17T06:23:23.071Z,5.90
2018-06-17T06:25:51.532Z,5.73
2018-06-17T06:28:19.987Z,6.27
2018-06-17T06:30:48.423Z,6.33
2018-06-17T06:33:16.906Z,6.00
2018-06-17T06:35:45.340Z,5.90
2018-06-17T06:38:13.768Z,5.43
2018-06-17T06:40:42.236Z,5.87
2018-06-17T06:43:10.789Z,6.47
2018-06-17T06:45:39.319Z,5.43
2018-06-17T06:48:07.961Z,5.87
2018-06-17T06:50:36.554Z,5.83
2018-06-17T06:53:05.169Z,5.70
2018-06-17T06:55:33.700Z,5.40
2018-06-17T06:58:02.113Z,6.03
2018-06-17T07:00:30.528Z,5.53
2018-06-17T07:03:10.367Z,6.23
2018-06-17T07:05:50.285Z,5.60
2018-06-17T07:08:30.005Z,5.70
2018-06-17T07:10:58.520Z,6.10
2018-06-17T07:13:27.020Z,5.30
2018-06-17T07:16:06.844Z,5.73
2018-06-17T07:18:37.799Z,5.70
2018-06-17T07:21:06.637Z,5.97
2018-06-17T07:23:35.083Z,5.80
2018-06-17T07:26:43.124Z,5.73
2018-06-17T07:29:24.131Z,6.50
2018-06-17T07:31:52.545Z,5.67
2018-06-17T07:34:20.983Z,5.97
2018-06-17T07:36:49.412Z,5.20
2018-06-17T07:40:31.743Z,5.67
2018-06-17T07:43:00.781Z,5.50
2018-06-17T07:45:29.160Z,5.60
2018-06-17T07:47:57.744Z,5.73
2018-06-17T07:50:37.648Z,5.20
2018-06-17T07:53:19.510Z,5.03
2018-06-17T07:55:48.428Z,5.70
2018-06-17T07:58:17.228Z,5.50
2018-06-17T08:00:45.591Z,5.53
2018-06-17T08:03:14.605Z,4.93
2018-06-17T08:05:43.734Z,4.63
2018-06-17T08:08:12.415Z,4.63
2018-06-17T08:10:41.162Z,4.60
2018-06-17T08:13:11.056Z,4.50
2018-06-17T08:15:39.992Z,4.27
2018-06-17T08:18:08.584Z,4.33
2018-06-17T08:20:37.416Z,4.03
2018-06-17T08:23:06.300Z,3.70
2018-06-17T08:25:35.642Z,3.77
2018-06-17T08:28:04.627Z,4.40
2018-06-17T08:30:33.167Z,4.37
2018-06-17T08:33:01.629Z,4.37
2018-06-17T08:35:30.129Z,4.33
2018-06-17T08:37:58.684Z,4.30
2018-06-17T08:40:27.276Z,3.83
2018-06-17T08:42:55.719Z,3.80
2018-06-17T08:45:24.212Z,3.70
2018-06-17T08:47:52.608Z,3.83
2018-06-17T08:50:21.162Z,4.60
2018-06-17T08:52:49.614Z,4.10
2018-06-17T08:55:17.999Z,4.03
2018-06-17T08:57:46.420Z,3.60
2018-06-17T09:00:15.104Z,3.70
2018-06-17T09:02:44.558Z,3.27
2018-06-17T09:05:13.132Z,3.97
2018-06-17T09:07:42.932Z,4.20
2018-06-17T09:10:11.603Z,3.80
2018-06-17T09:12:40.347Z,3.63
2018-06-17T09:15:09.302Z,3.80
2018-06-17T09:17:38.296Z,3.80
2018-06-17T09:20:07.202Z,3.83
2018-06-17T09:22:36.514Z,3.40
2018-06-17T09:25:05.633Z,3.50
2018-06-17T09:27:34.529Z,3.70
2018-06-17T09:30:03.016Z,3.43
2018-06-17T09:32:36.459Z,3.80
2018-06-17T09:35:05.933Z,3.93
2018-06-17T09:37:34.553Z,4.10
2018-06-17T09:40:03.624Z,4.03
2018-06-17T09:42:32.116Z,3.40
2018-06-17T09:45:00.534Z,3.73
2018-06-17T09:47:28.953Z,3.50
2018-06-17T09:49:57.540Z,3.43
2018-06-17T09:52:25.941Z,3.47
2018-06-17T09:54:54.827Z,3.50
2018-06-17T09:57:23.451Z,4.10
2018-06-17T09:59:51.972Z,3.80
2018-06-17T10:02:20.397Z,4.47
2018-06-17T10:04:48.848Z,3.90
2018-06-17T10:07:18.883Z,4.87
2018-06-17T10:10:21.507Z,4.40
2018-06-17T10:12:50.115Z,4.27
2018-06-17T10:15:18.926Z,4.17
2018-06-17T10:17:47.860Z,4.43
2018-06-17T10:20:17.783Z,4.63
2018-06-17T10:22:47.097Z,4.70
2018-06-17T10:25:17.067Z,5.73
2018-06-17T10:27:45.828Z,5.30
2018-06-17T10:30:14.448Z,5.13
2018-06-17T10:32:43.651Z,5.10
2018-06-17T10:35:12.757Z,4.60
2018-06-17T10:37:41.503Z,4.97
2018-06-17T10:40:10.436Z,5.00
2018-06-17T10:42:41.427Z,5.67
2018-06-17T10:45:10.956Z,5.30
2018-06-17T10:47:40.811Z,4.80
2018-06-17T10:50:10.309Z,4.63
2018-06-17T10:52:41.940Z,4.63
2018-06-17T10:55:13.422Z,5.80
2018-06-17T10:57:42.702Z,4.83
2018-06-17T11:00:11.813Z,4.70
2018-06-17T11:02:41.589Z,4.97
2018-06-17T11:05:11.544Z,4.57
2018-06-17T11:07:40.480Z,4.60
2018-06-17T11:10:09.650Z,4.37
2018-06-17T11:12:38.839Z,3.93
2018-06-17T11:15:10.240Z,4.30
2018-06-17T11:17:39.506Z,4.13
2018-06-17T11:20:08.985Z,4.57
2018-06-17T11:22:38.255Z,4.20
2018-06-17T11:25:07.642Z,3.37
2018-06-17T11:27:37.100Z,3.30
2018-06-17T11:30:06.764Z,3.27
2018-06-17T11:32:36.906Z,4.20
2018-06-17T11:35:06.181Z,3.63
2018-06-17T11:37:34.852Z,4.07
2018-06-17T11:40:03.252Z,4.70
2018-06-17T11:42:31.707Z,4.27
2018-06-17T11:45:00.255Z,4.57
2018-06-17T11:47:32.086Z,4.10
2018-06-17T11:50:00.698Z,4.50
2018-06-17T11:52:29.836Z,5.10
2018-06-17T11:55:00.195Z,4.17
2018-06-17T11:57:30.202Z,4.03
2018-06-17T11:59:59.477Z,3.80
2018-06-17T12:02:29.504Z,4.20
2018-06-17T12:05:00.046Z,4.50
2018-06-17T12:07:29.263Z,4.00
2018-06-17T12:09:58.828Z,4.00
2018-06-17T12:12:28.031Z,3.37
2018-06-17T12:14:59.397Z,3.67
2018-06-17T12:17:30.053Z,3.97
2018-06-17T12:20:00.794Z,4.00
2018-06-17T12:22:30.938Z,3.73
2018-06-17T12:24:59.980Z,3.83
2018-06-17T12:27:30.066Z,3.63
2018-06-17T12:30:00.543Z,3.80
2018-06-17T12:32:30.189Z,3.47
2018-06-17T12:35:01.031Z,3.50
2018-06-17T12:37:30.171Z,3.13
2018-06-17T12:40:01.375Z,3.40
2018-06-17T12:42:30.992Z,3.40
2018-06-17T12:45:00.335Z,3.43
2018-06-17T12:47:30.090Z,3.03
2018-06-17T12:50:01.693Z,2.93
2018-06-17T12:52:30.364Z,2.73
2018-06-17T12:55:00.196Z,2.93
2018-06-17T12:57:29.388Z,2.83
2018-06-17T12:59:59.378Z,2.97
2018-06-17T13:02:28.110Z,2.90
2018-06-17T13:04:57.841Z,3.20
2018-06-17T13:07:26.769Z,2.90
2018-06-17T13:09:56.370Z,2.80
2018-06-17T13:12:25.833Z,2.87
2018-06-17T13:14:56.517Z,2.47
2018-06-17T13:17:25.689Z,2.70
2018-06-17T13:19:54.891Z,2.63
2018-06-17T13:22:24.136Z,2.87
2018-06-17T13:25:00.017Z,2.57
2018-06-17T13:27:28.683Z,2.80
2018-06-17T13:29:57.564Z,2.53
2018-06-17T13:32:26.251Z,2.53
2018-06-17T13:34:55.258Z,2.83
2018-06-17T13:37:24.311Z,2.80
2018-06-17T13:39:53.333Z,2.80
2018-06-17T13:42:22.732Z,2.73
2018-06-17T13:44:52.265Z,2.97
2018-06-17T13:47:21.279Z,3.20
2018-06-17T13:49:50.984Z,2.50
2018-06-17T13:52:21.634Z,2.93
2018-06-17T13:54:51.176Z,3.17
2018-06-17T13:57:22.337Z,2.50
2018-06-17T13:59:51.074Z,2.83
2018-06-17T14:02:21.681Z,2.73
2018-06-17T14:04:51.636Z,2.80
2018-06-17T14:07:22.323Z,2.47
2018-06-17T14:09:51.967Z,2.97
2018-06-17T14:12:21.607Z,2.47
2018-06-17T14:14:50.587Z,2.40
2018-06-17T14:17:21.178Z,2.60
2018-06-17T14:19:51.499Z,2.37
2018-06-17T14:22:22.727Z,2.77
2018-06-17T14:24:54.425Z,2.40
2018-06-17T14:27:24.804Z,3.10
2018-06-17T14:29:53.509Z,2.70
2018-06-17T14:32:22.316Z,3.00
2018-06-17T14:34:51.987Z,2.50
2018-06-17T14:37:21.951Z,2.90
2018-06-17T14:39:52.683Z,2.67
2018-06-17T14:42:28.239Z,2.63
2018-06-17T14:45:02.232Z,2.47
2018-06-17T14:47:39.556Z,2.50
2018-06-17T14:50:17.191Z,3.23
2018-06-17T14:53:07.750Z,2.37
2018-06-17T14:55:39.249Z,2.60
2018-06-17T14:58:10.848Z,2.60
2018-06-17T15:00:41.554Z,2.43
2018-06-17T15:03:11.408Z,2.70
2018-06-17T15:05:42.208Z,2.27
2018-06-17T15:08:16.641Z,2.80
2018-06-17T15:10:50.739Z,2.90
2018-06-17T15:13:20.586Z,2.57
2018-06-17T15:15:51.806Z,2.67
2018-06-17T15:18:21.589Z,2.40
2018-06-17T15:20:50.907Z,2.37
2018-06-17T15:23:21.833Z,2.27
2018-06-17T15:25:50.385Z,2.67
2018-06-17T15:28:19.019Z,2.50
2018-06-17T15:30:47.540Z,2.53
2018-06-17T15:33:21.533Z,2.43
2018-06-17T15:35:55.387Z,2.33
2018-06-17T15:38:29.128Z,2.20
2018-06-17T15:41:10.912Z,2.30
2018-06-17T15:43:39.562Z,2.27
2018-06-17T15:46:08.831Z,2.50
2018-06-17T15:48:38.825Z,2.80
2018-06-17T15:51:07.845Z,2.30
2018-06-17T15:53:37.308Z,2.53
2018-06-17T15:56:06.537Z,2.90
2018-06-17T15:58:35.463Z,2.30
2018-06-17T16:01:04.170Z,2.00
2018-06-17T16:03:38.882Z,2.30
2018-06-17T16:06:07.965Z,2.57
2018-06-17T16:08:36.989Z,2.40
2018-06-17T16:11:06.236Z,2.20
2018-06-17T16:13:40.177Z,2.40
2018-06-17T16:16:14.471Z,2.83
2018-06-17T16:18:48.592Z,2.37
2018-06-17T16:21:17.116Z,2.60
2018-06-17T16:23:45.657Z,2.70
2018-06-17T16:26:14.265Z,2.70
2018-06-17T16:28:43.016Z,2.03
2018-06-17T16:31:12.095Z,2.80
2018-06-17T16:33:40.873Z,4.03
2018-06-17T16:36:09.695Z,2.73
2018-06-17T16:38:41.693Z,2.43
2018-06-17T16:41:10.862Z,2.73
2018-06-17T16:43:39.640Z,2.70
2018-06-17T16:46:08.861Z,2.50
2018-06-17T16:48:37.912Z,2.70
2018-06-17T16:51:12.078Z,2.70
2018-06-17T16:53:46.084Z,2.73
2018-06-17T16:56:20.661Z,2.50
2018-06-17T16:59:07.014Z,2.00
2018-06-17T17:01:37.344Z,1.73
2018-06-17T17:04:06.666Z,1.83
2018-06-17T17:06:37.650Z,1.90
2018-06-17T17:09:08.984Z,1.77
2018-06-17T17:11:39.174Z,1.40
2018-06-17T17:14:08.168Z,1.60
2018-06-17T17:16:37.340Z,1.63
2018-06-17T17:19:06.895Z,1.47
2018-06-17T17:21:40.081Z,1.63
2018-06-17T17:24:09.359Z,1.60
2018-06-17T17:26:38.345Z,1.67
2018-06-17T17:29:08.103Z,1.77
2018-06-17T17:31:42.560Z,1.60
2018-06-17T17:34:16.560Z,1.50
2018-06-17T17:36:51.053Z,1.70
2018-06-17T17:39:24.934Z,1.53
2018-06-17T17:41:53.295Z,1.60
2018-06-17T17:44:22.894Z,1.70
2018-06-17T17:46:56.719Z,1.53
2018-06-17T17:49:25.200Z,1.60
2018-06-17T17:51:53.560Z,1.50
2018-06-17T17:54:22.043Z,2.00
2018-06-17T17:56:50.406Z,2.10
2018-06-17T17:59:18.857Z,2.00
2018-06-17T18:01:48.304Z,2.10
2018-06-17T18:04:16.864Z,1.97
2018-06-17T18:06:45.603Z,1.90
2018-06-17T18:09:14.431Z,1.90
2018-06-17T18:11:44.514Z,2.13
2018-06-17T18:14:13.529Z,1.80
2018-06-17T18:16:42.380Z,2.10
2018-06-17T18:19:11.203Z,1.80
2018-06-17T18:21:40.017Z,2.10
2018-06-17T18:24:09.101Z,2.20
2018-06-17T18:26:43.194Z,2.03
2018-06-17T18:29:17.136Z,1.80
2018-06-17T18:31:51.198Z,1.97
2018-06-17T18:34:25.008Z,2.10
2018-06-17T18:36:53.447Z,2.20
2018-06-17T18:39:21.888Z,1.87
2018-06-17T18:41:50.381Z,1.70
2018-06-17T18:44:18.809Z,2.13
2018-06-17T18:46:47.567Z,2.10
2018-06-17T18:49:17.224Z,1.87
2018-06-17T18:51:45.499Z,2.00
2018-06-17T18:54:14.332Z,2.00
2018-06-17T18:56:43.034Z,1.90
2018-06-17T18:59:11.622Z,1.90
2018-06-17T19:01:40.549Z,1.80
2018-06-17T19:04:10.324Z,1.97
2018-06-17T19:06:39.287Z,1.90
2018-06-17T19:09:15.242Z,1.77
2018-06-17T19:11:49.240Z,2.00
2018-06-17T19:14:23.170Z,2.17
2018-06-17T19:16:57.011Z,1.80
2018-06-17T19:19:26.000Z,2.10
2018-06-17T19:21:54.489Z,2.00
2018-06-17T19:24:23.046Z,2.00
2018-06-17T19:26:51.507Z,1.90
2018-06-17T19:29:19.910Z,2.13
2018-06-17T19:31:48.780Z,1.77
2018-06-17T19:34:17.275Z,2.30
2018-06-17T19:36:46.087Z,2.30
2018-06-17T19:39:16.221Z,2.03
2018-06-17T19:41:45.910Z,2.43
2018-06-17T19:44:15.099Z,1.67
2018-06-17T19:46:43.951Z,1.77
2018-06-17T19:49:12.702Z,1.80
2018-06-17T19:51:46.575Z,2.30
2018-06-17T19:54:20.764Z,2.30
2018-06-17T19:56:54.567Z,2.00
2018-06-17T20:00:32.958Z,1.80
2018-06-17T20:03:03.087Z,1.93
2018-06-17T20:05:31.592Z,2.57
2018-06-17T20:08:00.076Z,2.20
2018-06-17T20:10:28.707Z,2.40
2018-06-17T20:12:57.451Z,2.10
2018-06-17T20:15:32.475Z,1.97
2018-06-17T20:18:01.875Z,2.40
2018-06-17T20:20:30.976Z,1.93
2018-06-17T20:22:59.375Z,2.60
2018-06-17T20:25:28.853Z,2.23
2018-06-17T20:28:01.900Z,2.47
2018-06-17T20:30:30.496Z,1.83
2018-06-17T20:33:04.356Z,2.00
2018-06-17T20:35:38.492Z,1.97
2018-06-17T20:38:12.659Z,1.83
2018-06-17T20:40:46.660Z,1.93
2018-06-17T20:43:20.379Z,2.47
2018-06-17T20:45:48.988Z,2.53
2018-06-17T20:48:17.604Z,2.43
2018-06-17T20:50:46.272Z,2.77
2018-06-17T20:53:16.104Z,2.40
2018-06-17T20:55:44.704Z,3.00
2018-06-17T20:58:14.376Z,2.70
2018-06-17T21:00:43.567Z,2.67
2018-06-17T21:03:12.297Z,2.80
2018-06-17T21:05:41.048Z,2.60
2018-06-17T21:08:09.883Z,2.67
2018-06-17T21:10:38.700Z,3.70
2018-06-17T21:13:07.144Z,3.77
2018-06-17T21:15:36.337Z,3.40
2018-06-17T21:18:05.224Z,3.40
2018-06-17T21:20:39.409Z,3.37
2018-06-17T21:23:16.448Z,2.97
2018-06-17T21:25:50.320Z,3.10
2018-06-17T21:28:18.967Z,3.47
2018-06-17T21:30:47.794Z,3.47
2018-06-17T21:33:16.275Z,3.20
2018-06-17T21:35:45.248Z,3.00
2018-06-17T21:38:13.787Z,3.13
2018-06-17T21:40:42.464Z,3.30
2018-06-17T21:43:11.136Z,3.50
2018-06-17T21:45:40.375Z,3.53
2018-06-17T21:48:09.168Z,3.73
2018-06-17T21:50:38.057Z,3.50
2018-06-17T21:53:06.840Z,3.47
2018-06-17T21:55:36.644Z,3.43
2018-06-17T21:58:05.794Z,3.53
2018-06-17T22:00:34.648Z,3.90
2018-06-17T22:03:03.610Z,3.70
2018-06-17T22:05:32.117Z,3.80
2018-06-17T22:08:05.819Z,3.70
2018-06-17T22:10:39.600Z,3.90
2018-06-17T22:13:08.486Z,4.33
2018-06-17T22:15:42.419Z,4.13
2018-06-17T22:18:11.268Z,3.53
2018-06-17T22:20:40.025Z,4.27
2018-06-17T22:23:08.775Z,4.27
2018-06-17T22:25:37.882Z,4.00
2018-06-17T22:28:06.971Z,4.33
2018-06-17T22:30:36.512Z,4.60
2018-06-17T22:33:05.818Z,4.57
2018-06-17T22:35:34.106Z,4.73
2018-06-17T22:38:02.637Z,4.47
2018-06-17T22:40:31.263Z,4.80
2018-06-17T22:42:59.851Z,4.77
2018-06-17T22:45:28.279Z,4.73
2018-06-17T22:47:57.772Z,4.67
2018-06-17T22:50:26.267Z,4.40
2018-06-17T22:53:06.115Z,4.30
2018-06-17T22:55:35.160Z,4.27
2018-06-17T22:58:09.172Z,5.03
2018-06-17T23:00:43.155Z,5.03
2018-06-17T23:03:17.140Z,4.20
2018-06-17T23:05:51.012Z,4.33
2018-06-17T23:08:24.756Z,4.17
2018-06-17T23:10:53.192Z,4.60
2018-06-17T23:13:21.620Z,5.27
2018-06-17T23:15:50.024Z,4.73
2018-06-17T23:18:18.442Z,5.13
2018-06-17T23:20:46.911Z,4.67
2018-06-17T23:23:15.503Z,5.00
2018-06-17T23:25:44.122Z,4.60
2018-06-17T23:28:12.803Z,4.83
2018-06-17T23:30:41.471Z,5.20
2018-06-17T23:33:09.996Z,4.80
2018-06-17T23:35:38.816Z,5.20
2018-06-17T23:38:07.815Z,4.93
2018-06-17T23:40:36.812Z,5.00
2018-06-17T23:43:05.639Z,4.70
2018-06-17T23:45:34.291Z,5.60
2018-06-17T23:48:08.136Z,4.87
2018-06-17T23:50:42.065Z,5.87
2018-06-17T23:53:15.947Z,5.80
2018-06-17T23:55:49.878Z,6.10
2018-06-17T23:58:18.235Z,4.97
